Time;durP1;ratioP1;P1;durP2;ratioP2;P2;SDS_P1;SDS_P2;PMS_P1;PMS_P2;Temp;Humidity;BMP_temperature;BMP_pressure;BME280_temperature;BME280_humidity;BME280_pressure;Samples;Min_cycle;Max_cycle;Signal;HPM_P1;HPM_P2
2022/09/19 00:01:42;;;;;;;;;;;6.80;99.90;;;;;;5065764;28;20113;-68
2022/09/19 00:04:10;;;;;;;;;;;6.80;99.90;;;;;;5065479;28;19920;-68
2022/09/19 00:06:38;;;;;;;;;;;6.80;99.90;;;;;;5064927;28;19927;-69
2022/09/19 00:09:09;;;;;;;;;;;6.80;99.90;;;;;;5065344;28;19920;-70
2022/09/19 00:11:35;;;;;;;;;;;6.70;99.90;;;;;;5063005;28;20111;-69
2022/09/19 00:14:02;;;;;;;;;;;6.70;99.90;;;;;;5065342;28;19984;-69
2022/09/19 00:16:29;;;;;;;;;;;6.70;99.90;;;;;;5064883;28;19960;-68
2022/09/19 00:18:57;;;;;;;;;;;6.70;99.90;;;;;;5065697;28;19921;-68
2022/09/19 00:21:24;;;;;;;;;;;6.70;99.90;;;;;;5064902;28;19991;-69
2022/09/19 00:26:37;;;;;;;;;;;6.60;99.90;;;;;;5064520;28;19955;-69
2022/09/19 00:29:04;;;;;;;;;;;6.50;99.90;;;;;;5063953;28;19925;-69
2022/09/19 00:31:31;;;;;;;;;;;6.50;99.90;;;;;;5065073;28;20246;-68
2022/09/19 00:33:57;;;;;;;;;;;6.40;99.90;;;;;;5065400;28;19925;-69
2022/09/19 00:36:24;;;;;;;;;;;6.40;99.90;;;;;;5064333;28;20216;-68
2022/09/19 00:38:51;;;;;;;;;;;6.50;99.90;;;;;;5064952;28;20207;-68
2022/09/19 00:41:25;;;;;;;;;;;6.50;99.90;;;;;;5064196;28;19988;-68
2022/09/19 00:43:54;;;;;;;;;;;6.50;99.90;;;;;;5053590;28;20176;-68
2022/09/19 00:46:22;;;;;;;;;;;6.50;99.90;;;;;;5064363;28;19931;-68
2022/09/19 00:48:51;;;;;;;;;;;6.50;99.90;;;;;;5064994;28;19980;-68
2022/09/19 00:51:21;;;;;;;;;;;6.50;99.90;;;;;;5064632;28;19921;-68
2022/09/19 00:53:48;;;;;;;;;;;6.50;99.90;;;;;;5064696;28;19935;-68
2022/09/19 00:56:18;;;;;;;;;;;6.60;99.90;;;;;;5064218;28;19920;-68
2022/09/19 00:58:45;;;;;;;;;;;6.60;99.90;;;;;;5064431;28;20208;-68
2022/09/19 01:01:14;;;;;;;;;;;6.60;99.90;;;;;;5059827;28;20263;-68
2022/09/19 01:03:42;;;;;;;;;;;6.60;99.90;;;;;;5064443;28;19924;-68
2022/09/19 01:06:15;;;;;;;;;;;6.60;99.90;;;;;;5063599;28;19920;-68
2022/09/19 01:08:52;;;;;;;;;;;6.60;99.90;;;;;;5064157;28;19928;-68
2022/09/19 01:11:33;;;;;;;;;;;6.70;99.90;;;;;;5064193;28;19925;-68
2022/09/19 01:14:03;;;;;;;;;;;6.70;99.90;;;;;;5064346;28;19920;-69
2022/09/19 01:16:38;;;;;;;;;;;6.70;99.90;;;;;;5063584;28;20226;-68
2022/09/19 01:19:16;;;;;;;;;;;6.70;99.90;;;;;;5064297;28;19920;-69
2022/09/19 01:21:47;;;;;;;;;;;6.80;99.90;;;;;;5062747;28;19921;-68
2022/09/19 01:24:34;;;;;;;;;;;6.80;99.90;;;;;;5064165;28;19920;-68
2022/09/19 01:27:19;;;;;;;;;;;6.80;99.90;;;;;;5064289;28;19921;-68
2022/09/19 01:29:49;;;;;;;;;;;6.80;99.90;;;;;;5046772;28;19992;-68
2022/09/19 01:32:17;;;;;;;;;;;6.90;99.90;;;;;;5064219;28;19952;-69
2022/09/19 01:34:45;;;;;;;;;;;6.90;99.90;;;;;;5063422;28;19984;-69
2022/09/19 01:37:13;;;;;;;;;;;6.90;99.90;;;;;;5063892;28;19952;-69
2022/09/19 01:39:42;;;;;;;;;;;6.90;99.90;;;;;;5063478;28;19944;-68
2022/09/19 01:42:12;;;;;;;;;;;6.90;99.90;;;;;;5063598;28;20115;-68
2022/09/19 01:44:38;;;;;;;;;;;6.90;99.90;;;;;;5063327;28;19985;-68
2022/09/19 01:47:14;;;;;;;;;;;7.00;99.90;;;;;;5076746;22;19952;-73
2022/09/19 01:49:43;;;;;;;;;;;6.90;99.90;;;;;;5053483;28;19921;-73
2022/09/19 01:52:17;;;;;;;;;;;7.00;99.90;;;;;;5063483;28;20003;-73
2022/09/19 01:54:46;;;;;;;;;;;7.00;99.90;;;;;;5063322;28;19943;-73
2022/09/19 01:57:17;;;;;;;;;;;7.00;99.90;;;;;;5063566;28;19928;-72
2022/09/19 01:59:48;;;;;;;;;;;7.00;99.90;;;;;;5063150;28;19921;-73
2022/09/19 02:02:22;;;;;;;;;;;7.00;99.90;;;;;;5071844;28;19920;-72
2022/09/19 02:04:53;;;;;;;;;;;7.00;99.90;;;;;;5076217;28;19987;-73
2022/09/19 02:07:23;;;;;;;;;;;7.00;99.90;;;;;;5083299;28;19943;-73
2022/09/19 02:09:53;;;;;;;;;;;7.00;99.90;;;;;;5077886;28;19988;-73
2022/09/19 02:12:22;;;;;;;;;;;7.00;99.90;;;;;;5063538;28;19921;-73
2022/09/19 02:14:54;;;;;;;;;;;7.00;99.90;;;;;;5059017;28;20151;-72
2022/09/19 02:17:23;;;;;;;;;;;7.00;99.90;;;;;;5063352;28;19927;-73
2022/09/19 02:19:52;;;;;;;;;;;7.10;99.90;;;;;;5060564;28;20211;-73
2022/09/19 02:22:23;;;;;;;;;;;7.00;99.90;;;;;;5063811;28;19921;-73
2022/09/19 02:24:51;;;;;;;;;;;7.10;99.90;;;;;;5063284;28;19935;-73
2022/09/19 02:27:20;;;;;;;;;;;7.10;99.90;;;;;;5063024;28;19952;-73
2022/09/19 02:29:49;;;;;;;;;;;7.10;99.90;;;;;;5060940;28;20115;-73
2022/09/19 02:32:19;;;;;;;;;;;7.10;99.90;;;;;;5063546;28;19921;-73
2022/09/19 02:34:49;;;;;;;;;;;7.10;99.90;;;;;;5062258;28;19924;-73
2022/09/19 02:37:17;;;;;;;;;;;7.10;99.90;;;;;;5062923;28;19928;-73
2022/09/19 02:39:46;;;;;;;;;;;7.10;99.90;;;;;;5071504;28;19920;-73
2022/09/19 02:42:20;;;;;;;;;;;7.10;99.90;;;;;;5076740;28;19928;-73
2022/09/19 02:44:53;;;;;;;;;;;7.10;99.90;;;;;;5078160;28;19929;-73
2022/09/19 02:47:21;;;;;;;;;;;7.10;99.90;;;;;;5062903;28;19927;-73
2022/09/19 02:49:51;;;;;;;;;;;7.10;99.90;;;;;;5063072;28;19974;-73
2022/09/19 02:52:19;;;;;;;;;;;7.20;99.90;;;;;;5063061;28;19921;-73
2022/09/19 02:54:48;;;;;;;;;;;7.20;99.90;;;;;;5062593;28;19988;-73
2022/09/19 02:57:16;;;;;;;;;;;7.20;99.90;;;;;;5062471;28;19921;-73
2022/09/19 02:59:44;;;;;;;;;;;7.20;99.90;;;;;;5062896;28;19920;-73
2022/09/19 03:02:16;;;;;;;;;;;7.20;99.90;;;;;;5066179;28;20112;-73
2022/09/19 03:04:45;;;;;;;;;;;7.20;99.90;;;;;;5067017;28;19920;-73
2022/09/19 03:07:15;;;;;;;;;;;7.20;99.90;;;;;;5083187;28;19944;-73
2022/09/19 03:09:44;;;;;;;;;;;7.20;99.90;;;;;;5081809;28;19920;-73
2022/09/19 03:12:17;;;;;;;;;;;7.20;99.90;;;;;;5062613;28;19927;-73
2022/09/19 03:14:44;;;;;;;;;;;7.20;99.90;;;;;;5062277;28;20184;-73
2022/09/19 03:17:12;;;;;;;;;;;7.30;99.90;;;;;;5062541;28;19991;-73
2022/09/19 03:19:41;;;;;;;;;;;7.20;99.90;;;;;;5062749;28;19921;-73
2022/09/19 03:22:07;;;;;;;;;;;7.30;99.90;;;;;;5063085;28;19971;-73
2022/09/19 03:24:37;;;;;;;;;;;7.30;99.90;;;;;;5062217;28;19927;-73
2022/09/19 03:27:04;;;;;;;;;;;7.30;99.90;;;;;;5062252;28;20150;-73
2022/09/19 03:29:31;;;;;;;;;;;7.30;99.90;;;;;;5060441;28;20246;-73
2022/09/19 03:31:57;;;;;;;;;;;7.30;99.90;;;;;;5062572;28;19940;-73
2022/09/19 03:34:24;;;;;;;;;;;7.30;99.90;;;;;;5062669;28;20166;-73
2022/09/19 03:36:51;;;;;;;;;;;7.30;99.90;;;;;;5062222;28;19988;-73
2022/09/19 03:39:17;;;;;;;;;;;7.30;99.90;;;;;;5067065;28;19928;-73
2022/09/19 03:41:45;;;;;;;;;;;7.20;99.90;;;;;;5074917;28;19959;-73
2022/09/19 03:44:12;;;;;;;;;;;7.30;99.90;;;;;;5082572;28;19921;-73
2022/09/19 03:46:40;;;;;;;;;;;7.30;99.90;;;;;;5082436;28;19988;-73
2022/09/19 03:49:07;;;;;;;;;;;7.30;99.90;;;;;;5086324;28;19920;-73
2022/09/19 03:51:34;;;;;;;;;;;7.30;99.90;;;;;;5086150;28;20123;-73
2022/09/19 03:54:01;;;;;;;;;;;7.30;99.90;;;;;;5086051;28;19958;-73
2022/09/19 03:56:27;;;;;;;;;;;7.30;99.90;;;;;;5071695;28;19921;-73
2022/09/19 03:58:55;;;;;;;;;;;7.40;99.90;;;;;;5065913;28;19971;-73
2022/09/19 04:01:22;;;;;;;;;;;7.40;99.90;;;;;;5066828;28;19927;-73
2022/09/19 04:03:48;;;;;;;;;;;7.40;99.90;;;;;;5077397;28;19926;-73
2022/09/19 04:06:15;;;;;;;;;;;7.40;99.90;;;;;;5085471;28;19943;-73
2022/09/19 04:08:42;;;;;;;;;;;7.40;99.90;;;;;;5085608;28;20294;-73
2022/09/19 04:11:09;;;;;;;;;;;7.40;99.90;;;;;;5065413;28;19921;-73
2022/09/19 04:13:37;;;;;;;;;;;7.40;99.90;;;;;;5065430;28;19921;-72
2022/09/19 04:16:05;;;;;;;;;;;7.40;99.90;;;;;;5065291;28;19921;-73
2022/09/19 04:18:32;;;;;;;;;;;7.40;99.90;;;;;;5065451;28;19946;-73
2022/09/19 04:20:59;;;;;;;;;;;7.40;99.90;;;;;;5065597;28;20115;-73
2022/09/19 04:23:26;;;;;;;;;;;7.40;99.90;;;;;;5065483;28;19988;-74
2022/09/19 04:25:54;;;;;;;;;;;7.40;99.90;;;;;;5064735;28;19927;-73
2022/09/19 04:28:21;;;;;;;;;;;7.50;99.90;;;;;;5065082;28;20208;-73
2022/09/19 04:30:47;;;;;;;;;;;7.50;99.90;;;;;;5062992;28;19920;-73
2022/09/19 04:33:18;;;;;;;;;;;7.50;99.90;;;;;;5065277;28;20115;-73
2022/09/19 04:35:44;;;;;;;;;;;7.60;99.90;;;;;;5064635;28;19992;-73
2022/09/19 04:38:12;;;;;;;;;;;7.60;99.90;;;;;;5072954;28;19920;-73
2022/09/19 04:40:39;;;;;;;;;;;7.60;99.90;;;;;;5065571;28;20212;-72
2022/09/19 04:43:06;;;;;;;;;;;7.60;99.90;;;;;;5065424;28;20406;-73
2022/09/19 04:45:32;;;;;;;;;;;7.60;99.90;;;;;;5064492;28;19920;-73
2022/09/19 04:47:59;;;;;;;;;;;7.60;99.90;;;;;;5065062;28;20123;-73
2022/09/19 04:50:27;;;;;;;;;;;7.60;99.90;;;;;;5064880;28;20136;-72
2022/09/19 04:52:57;;;;;;;;;;;7.60;99.90;;;;;;5065193;28;19921;-73
2022/09/19 04:55:25;;;;;;;;;;;7.60;99.90;;;;;;5064320;28;19920;-72
2022/09/19 04:57:51;;;;;;;;;;;7.60;99.90;;;;;;5064778;28;20077;-73
2022/09/19 05:00:36;;;;;;;;;;;7.70;99.90;;;;;;5064162;28;19956;-74
2022/09/19 05:03:05;;;;;;;;;;;7.70;99.90;;;;;;5071805;28;19966;-73
2022/09/19 05:05:34;;;;;;;;;;;7.70;99.90;;;;;;5075621;28;19928;-73
2022/09/19 05:08:00;;;;;;;;;;;7.60;99.90;;;;;;5066071;28;19929;-73
2022/09/19 05:10:27;;;;;;;;;;;7.70;99.90;;;;;;5062897;28;19922;-73
2022/09/19 05:12:54;;;;;;;;;;;7.70;99.90;;;;;;5064512;28;19959;-73
2022/09/19 05:15:20;;;;;;;;;;;7.70;99.90;;;;;;5063589;28;19927;-73
2022/09/19 05:17:47;;;;;;;;;;;7.70;99.90;;;;;;5064260;28;19920;-70
2022/09/19 05:20:14;;;;;;;;;;;7.70;99.90;;;;;;5058561;28;19928;-71
2022/09/19 05:22:42;;;;;;;;;;;7.70;99.90;;;;;;5060455;28;19984;-71
2022/09/19 05:25:09;;;;;;;;;;;7.70;99.90;;;;;;5063951;28;19944;-75
2022/09/19 05:27:36;;;;;;;;;;;7.80;99.90;;;;;;5063728;28;19988;-75
2022/09/19 05:30:03;;;;;;;;;;;7.80;99.90;;;;;;5061686;28;19921;-74
2022/09/19 05:32:32;;;;;;;;;;;7.80;99.90;;;;;;5063835;28;19927;-74
2022/09/19 05:35:00;;;;;;;;;;;7.80;99.90;;;;;;5063666;28;19921;-75
2022/09/19 05:37:27;;;;;;;;;;;7.90;99.90;;;;;;5064851;28;19943;-75
2022/09/19 05:39:55;;;;;;;;;;;7.90;99.90;;;;;;5074954;28;19921;-74
2022/09/19 05:42:21;;;;;;;;;;;7.90;99.90;;;;;;5063982;28;20115;-75
2022/09/19 05:44:48;;;;;;;;;;;7.90;99.90;;;;;;5063318;28;19958;-74
2022/09/19 05:47:15;;;;;;;;;;;7.90;99.90;;;;;;5063924;28;19920;-75
2022/09/19 05:49:41;;;;;;;;;;;7.90;99.90;;;;;;5070689;28;19915;-75
2022/09/19 05:54:49;;;;;;;;;;;8.00;99.90;;;;;;5066573;28;19952;-74
2022/09/19 05:57:18;;;;;;;;;;;8.00;99.90;;;;;;5063764;28;19921;-74
2022/09/19 05:59:45;;;;;;;;;;;8.00;99.90;;;;;;5063472;28;19974;-75
2022/09/19 06:02:12;;;;;;;;;;;8.10;99.90;;;;;;5061321;28;19988;-75
2022/09/19 06:04:39;;;;;;;;;;;8.00;99.90;;;;;;5062663;28;19920;-74
2022/09/19 06:07:11;;;;;;;;;;;8.00;99.90;;;;;;5061643;28;20243;-74
2022/09/19 06:09:38;;;;;;;;;;;8.10;99.90;;;;;;5041784;28;20128;-75
2022/09/19 06:12:05;;;;;;;;;;;8.10;99.90;;;;;;5043417;28;19921;-75
2022/09/19 06:14:35;;;;;;;;;;;8.10;99.90;;;;;;5057404;28;19921;-75
2022/09/19 06:17:03;;;;;;;;;;;8.10;99.90;;;;;;5062927;28;19956;-74
2022/09/19 06:19:30;;;;;;;;;;;8.20;99.90;;;;;;5063400;28;19928;-74
2022/09/19 06:21:57;;;;;;;;;;;8.20;99.90;;;;;;5061324;28;19987;-74
2022/09/19 06:24:23;;;;;;;;;;;8.30;99.90;;;;;;5064135;28;19921;-75
2022/09/19 06:26:53;;;;;;;;;;;8.30;99.90;;;;;;5063259;28;20115;-75
2022/09/19 06:29:20;;;;;;;;;;;8.40;99.90;;;;;;5063630;28;19921;-74
2022/09/19 06:31:48;;;;;;;;;;;8.40;99.90;;;;;;5063316;28;19927;-74
2022/09/19 06:34:15;;;;;;;;;;;8.40;99.90;;;;;;5063569;28;20111;-74
2022/09/19 06:36:43;;;;;;;;;;;8.40;99.90;;;;;;5062629;28;19927;-74
2022/09/19 06:39:09;;;;;;;;;;;8.40;99.90;;;;;;5063723;28;19920;-74
2022/09/19 06:41:36;;;;;;;;;;;8.50;99.90;;;;;;5063648;28;19921;-74
2022/09/19 06:44:07;;;;;;;;;;;8.60;99.90;;;;;;5061096;28;20177;-74
2022/09/19 06:46:37;;;;;;;;;;;8.60;99.90;;;;;;5062661;28;19928;-74
2022/09/19 06:49:07;;;;;;;;;;;8.70;99.90;;;;;;5063106;28;19966;-74
2022/09/19 06:51:33;;;;;;;;;;;8.70;99.90;;;;;;5063062;28;19927;-74
2022/09/19 06:54:00;;;;;;;;;;;8.70;99.90;;;;;;5060960;28;19928;-74
2022/09/19 06:56:27;;;;;;;;;;;8.80;99.90;;;;;;5062891;28;20111;-74
2022/09/19 06:58:53;;;;;;;;;;;8.80;99.90;;;;;;5063426;28;19983;-76
2022/09/19 07:01:20;;;;;;;;;;;8.90;99.90;;;;;;5063519;28;20093;-74
2022/09/19 07:03:47;;;;;;;;;;;8.90;99.90;;;;;;5045647;28;19921;-74
2022/09/19 07:06:15;;;;;;;;;;;8.90;99.90;;;;;;5042551;28;19921;-75
2022/09/19 07:08:42;;;;;;;;;;;9.00;99.90;;;;;;5063047;28;19966;-74
2022/09/19 07:11:08;;;;;;;;;;;9.00;99.90;;;;;;5068544;28;19925;-75
2022/09/19 07:13:35;;;;;;;;;;;9.10;99.90;;;;;;5063095;28;20258;-74
2022/09/19 07:16:08;;;;;;;;;;;9.20;99.90;;;;;;5060630;28;19984;-74
2022/09/19 07:18:36;;;;;;;;;;;9.20;99.90;;;;;;5063479;28;20222;-75
2022/09/19 07:21:03;;;;;;;;;;;9.10;99.90;;;;;;5064988;28;20191;-75
2022/09/19 07:23:31;;;;;;;;;;;9.10;99.90;;;;;;5067328;28;19920;-75
2022/09/19 07:25:58;;;;;;;;;;;9.10;99.90;;;;;;5066314;28;19927;-74
2022/09/19 07:28:24;;;;;;;;;;;9.20;99.90;;;;;;5066931;28;19991;-76
2022/09/19 07:30:51;;;;;;;;;;;9.30;99.90;;;;;;5066800;28;20254;-74
2022/09/19 07:33:19;;;;;;;;;;;9.30;99.90;;;;;;5066911;28;19988;-75
2022/09/19 07:35:46;;;;;;;;;;;9.30;99.90;;;;;;5066188;28;19921;-75
2022/09/19 07:38:14;;;;;;;;;;;9.40;99.90;;;;;;5067084;28;19921;-75
2022/09/19 07:40:42;;;;;;;;;;;9.40;99.90;;;;;;5066606;28;19920;-74
2022/09/19 07:43:11;;;;;;;;;;;9.50;99.90;;;;;;5066785;28;19963;-74
2022/09/19 07:45:38;;;;;;;;;;;9.50;99.90;;;;;;5065831;28;19984;-74
2022/09/19 07:48:05;;;;;;;;;;;9.50;99.90;;;;;;5131945;22;20241;-72
2022/09/19 07:50:32;;;;;;;;;;;9.50;99.90;;;;;;5086218;28;20122;-73
2022/09/19 07:52:59;;;;;;;;;;;9.50;99.90;;;;;;5086050;28;19952;-73
2022/09/19 07:55:26;;;;;;;;;;;9.50;99.90;;;;;;5085797;28;20123;-73
2022/09/19 07:57:55;;;;;;;;;;;9.50;99.90;;;;;;5069506;28;19987;-73
2022/09/19 08:00:22;;;;;;;;;;;9.60;99.90;;;;;;5066003;28;19927;-72
2022/09/19 08:02:55;;;;;;;;;;;9.70;99.90;;;;;;5065550;28;19921;-72
2022/09/19 08:05:22;;;;;;;;;;;9.70;99.90;;;;;;5058068;28;19921;-72
2022/09/19 08:07:49;;;;;;;;;;;9.80;99.90;;;;;;5063959;28;19920;-72
2022/09/19 08:10:16;;;;;;;;;;;9.80;99.90;;;;;;5065369;28;19952;-72
2022/09/19 08:12:44;;;;;;;;;;;9.70;99.90;;;;;;5065373;28;20204;-72
2022/09/19 08:15:15;;;;;;;;;;;9.70;99.90;;;;;;5065180;28;20253;-71
2022/09/19 08:17:42;;;;;;;;;;;9.70;99.90;;;;;;5079646;28;19979;-71
2022/09/19 08:20:09;;;;;;;;;;;9.60;99.90;;;;;;5085640;28;19980;-72
2022/09/19 08:22:35;;;;;;;;;;;9.60;99.90;;;;;;5071608;28;19920;-72
2022/09/19 08:25:02;;;;;;;;;;;9.60;99.90;;;;;;5065232;28;19956;-72
2022/09/19 08:27:28;;;;;;;;;;;9.70;99.90;;;;;;5065287;28;19992;-72
2022/09/19 08:29:56;;;;;;;;;;;9.80;99.90;;;;;;5065179;28;19920;-72
2022/09/19 08:32:25;;;;;;;;;;;9.80;99.90;;;;;;5064517;28;20026;-72
2022/09/19 08:34:53;;;;;;;;;;;9.90;99.90;;;;;;5065042;28;19959;-72
2022/09/19 08:37:20;;;;;;;;;;;10.00;99.90;;;;;;5065023;28;19921;-73
2022/09/19 08:42:29;;;;;;;;;;;10.10;99.90;;;;;;5064501;28;20280;-72
2022/09/19 08:45:00;;;;;;;;;;;10.10;99.90;;;;;;5064783;28;19943;-72
2022/09/19 08:47:32;;;;;;;;;;;10.10;99.90;;;;;;5065148;28;20226;-72
2022/09/19 08:50:00;;;;;;;;;;;10.10;99.90;;;;;;5064992;28;20488;-73
2022/09/19 08:52:31;;;;;;;;;;;10.20;99.90;;;;;;5065683;28;19928;-73
2022/09/19 08:54:58;;;;;;;;;;;10.20;99.90;;;;;;5064992;28;20115;-73
2022/09/19 08:57:26;;;;;;;;;;;10.20;99.90;;;;;;5065011;28;20208;-73
2022/09/19 08:59:56;;;;;;;;;;;10.30;99.90;;;;;;5064968;28;19921;-73
2022/09/19 09:02:26;;;;;;;;;;;10.30;99.90;;;;;;5065298;28;19992;-72
2022/09/19 09:04:55;;;;;;;;;;;10.40;99.90;;;;;;5065027;28;19921;-73
2022/09/19 09:07:30;;;;;;;;;;;10.40;99.90;;;;;;5065168;28;19921;-73
2022/09/19 09:10:07;;;;;;;;;;;10.50;99.90;;;;;;5049928;28;19936;-73
2022/09/19 09:12:40;;;;;;;;;;;10.50;99.90;;;;;;5054600;28;19928;-72
2022/09/19 09:15:12;;;;;;;;;;;10.60;99.90;;;;;;5059938;28;19967;-74
2022/09/19 09:17:46;;;;;;;;;;;10.70;99.90;;;;;;5078288;28;19956;-72
2022/09/19 09:20:36;;;;;;;;;;;10.70;99.90;;;;;;5084830;28;19920;-72
2022/09/19 09:23:08;;;;;;;;;;;10.80;99.90;;;;;;5081752;28;19987;-72
2022/09/19 09:25:36;;;;;;;;;;;10.90;99.90;;;;;;5084647;28;19991;-71
2022/09/19 09:28:06;;;;;;;;;;;10.80;99.90;;;;;;5067964;28;19920;-71
2022/09/19 09:30:35;;;;;;;;;;;10.80;99.90;;;;;;5059067;28;19921;-72
2022/09/19 09:33:07;;;;;;;;;;;10.80;99.90;;;;;;5063867;28;19928;-71
2022/09/19 09:35:35;;;;;;;;;;;10.80;99.90;;;;;;5062146;28;19921;-72
2022/09/19 09:38:08;;;;;;;;;;;10.80;99.90;;;;;;5064602;28;19944;-73
2022/09/19 09:43:29;;;;;;;;;;;10.80;99.90;;;;;;5063057;28;20067;-72
2022/09/19 09:45:59;;;;;;;;;;;10.80;99.90;;;;;;5063407;28;19927;-72
2022/09/19 09:48:29;;;;;;;;;;;10.90;99.90;;;;;;5063379;28;19924;-72
2022/09/19 09:51:07;;;;;;;;;;;10.90;99.90;;;;;;5063696;28;19993;-72
2022/09/19 09:53:42;;;;;;;;;;;10.90;99.90;;;;;;5064134;28;19921;-72
2022/09/19 09:56:17;;;;;;;;;;;11.00;99.90;;;;;;5063687;28;19921;-72
2022/09/19 09:58:52;;;;;;;;;;;11.00;99.90;;;;;;5063903;28;19943;-72
2022/09/19 10:04:10;;;;;;;;;;;11.10;99.90;;;;;;5059590;28;19958;-71
2022/09/19 10:06:40;;;;;;;;;;;11.20;99.90;;;;;;5063485;28;19927;-73
2022/09/19 10:09:08;;;;;;;;;;;11.20;99.90;;;;;;5061856;28;19944;-72
2022/09/19 10:11:41;;;;;;;;;;;11.20;99.90;;;;;;5063106;28;19920;-72
2022/09/19 10:14:18;;;;;;;;;;;11.20;99.90;;;;;;5062545;28;20426;-72
2022/09/19 10:16:46;;;;;;;;;;;11.10;99.90;;;;;;5062858;28;19928;-71
2022/09/19 10:19:20;;;;;;;;;;;11.00;99.90;;;;;;5063514;28;19962;-72
2022/09/19 10:21:48;;;;;;;;;;;11.00;99.90;;;;;;5061407;28;19929;-72
2022/09/19 10:24:36;;;;;;;;;;;11.00;99.90;;;;;;5063008;28;19987;-71
2022/09/19 10:27:11;;;;;;;;;;;11.00;99.90;;;;;;5060839;28;19950;-71
2022/09/19 10:29:48;;;;;;;;;;;11.00;99.90;;;;;;5063243;28;19924;-71
2022/09/19 10:32:23;;;;;;;;;;;10.90;99.90;;;;;;5063178;28;19960;-71
2022/09/19 10:34:50;;;;;;;;;;;10.80;99.90;;;;;;5062591;28;20003;-71
2022/09/19 10:37:18;;;;;;;;;;;10.80;99.90;;;;;;5061793;28;19920;-71
2022/09/19 10:39:46;;;;;;;;;;;10.80;99.90;;;;;;5062386;28;19928;-70
2022/09/19 10:42:41;;;;;;;;;;;10.80;99.90;;;;;;5062989;28;19925;-75
2022/09/19 10:45:25;;;;;;;;;;;10.80;99.90;;;;;;5027704;28;19963;-72
2022/09/19 10:47:55;;;;;;;;;;;10.80;99.90;;;;;;5061044;28;19951;-71
2022/09/19 10:50:22;;;;;;;;;;;10.90;99.90;;;;;;5063522;28;19963;-72
2022/09/19 10:52:50;;;;;;;;;;;11.00;99.90;;;;;;5063267;28;19927;-71
2022/09/19 10:55:20;;;;;;;;;;;10.90;99.90;;;;;;5063647;28;19980;-72
2022/09/19 10:57:49;;;;;;;;;;;10.90;99.90;;;;;;5066936;28;19957;-71
2022/09/19 11:00:23;;;;;;;;;;;10.90;99.90;;;;;;5067482;28;19928;-72
2022/09/19 11:02:56;;;;;;;;;;;10.90;99.90;;;;;;5066833;28;19921;-72
2022/09/19 11:05:24;;;;;;;;;;;10.90;99.90;;;;;;5067280;28;19921;-71
2022/09/19 11:07:54;;;;;;;;;;;10.90;99.90;;;;;;5062454;28;19920;-72
2022/09/19 11:10:37;;;;;;;;;;;10.80;99.90;;;;;;5066418;28;19943;-72
2022/09/19 11:13:14;;;;;;;;;;;10.80;99.90;;;;;;5058716;28;19956;-72
2022/09/19 11:15:49;;;;;;;;;;;10.80;99.90;;;;;;5065966;28;20219;-72
2022/09/19 11:18:22;;;;;;;;;;;10.80;99.90;;;;;;5066517;28;19920;-72
2022/09/19 11:20:57;;;;;;;;;;;10.90;99.90;;;;;;5047358;28;19925;-72
2022/09/19 11:23:41;;;;;;;;;;;11.00;99.90;;;;;;5047843;28;19959;-72
2022/09/19 11:26:14;;;;;;;;;;;11.00;99.90;;;;;;5062610;28;19921;-72
2022/09/19 11:28:46;;;;;;;;;;;11.00;99.90;;;;;;5059077;28;19924;-72
2022/09/19 11:31:18;;;;;;;;;;;11.20;99.90;;;;;;5066889;28;19921;-72
2022/09/19 11:33:53;;;;;;;;;;;11.30;99.90;;;;;;5066704;28;20278;-72
2022/09/19 11:36:25;;;;;;;;;;;11.30;99.90;;;;;;5066279;28;19988;-72
2022/09/19 11:38:55;;;;;;;;;;;11.40;99.90;;;;;;5067532;28;20093;-72
2022/09/19 11:41:26;;;;;;;;;;;11.50;99.90;;;;;;5066784;28;19920;-72
2022/09/19 11:44:00;;;;;;;;;;;11.50;99.90;;;;;;5066630;28;19988;-71
2022/09/19 11:46:31;;;;;;;;;;;11.50;99.90;;;;;;5066128;28;19921;-71
2022/09/19 11:49:07;;;;;;;;;;;11.40;99.90;;;;;;5066142;28;19944;-72
2022/09/19 11:51:37;;;;;;;;;;;11.30;99.90;;;;;;5066521;28;19920;-71
2022/09/19 11:54:17;;;;;;;;;;;11.10;99.90;;;;;;5066182;28;19987;-71
2022/09/19 11:56:53;;;;;;;;;;;11.10;99.90;;;;;;5066169;28;19921;-72
2022/09/19 11:59:31;;;;;;;;;;;11.10;99.90;;;;;;5065784;28;19921;-71
2022/09/19 12:02:00;;;;;;;;;;;11.10;99.90;;;;;;5066336;28;19921;-71
2022/09/19 12:04:35;;;;;;;;;;;11.10;99.90;;;;;;5065623;28;19952;-71
2022/09/19 12:07:10;;;;;;;;;;;11.20;99.90;;;;;;5064646;28;19989;-72
2022/09/19 12:09:40;;;;;;;;;;;11.40;99.90;;;;;;5066248;28;19921;-71
2022/09/19 12:12:11;;;;;;;;;;;11.50;99.90;;;;;;5064729;28;19932;-71
2022/09/19 12:14:42;;;;;;;;;;;11.60;99.90;;;;;;5065523;28;19928;-70
2022/09/19 12:17:11;;;;;;;;;;;11.70;99.90;;;;;;5065388;28;19979;-71
2022/09/19 12:19:44;;;;;;;;;;;11.80;99.90;;;;;;5065478;28;19927;-76
2022/09/19 12:22:13;;;;;;;;;;;11.90;99.90;;;;;;5065155;28;20208;-71
2022/09/19 12:24:53;;;;;;;;;;;11.90;99.90;;;;;;5064690;28;19927;-70
2022/09/19 12:27:23;;;;;;;;;;;11.90;99.90;;;;;;5065591;28;19917;-72
2022/09/19 12:29:52;;;;;;;;;;;12.00;99.90;;;;;;5065343;28;19928;-71
2022/09/19 12:32:22;;;;;;;;;;;12.10;99.90;;;;;;5065053;28;19927;-72
2022/09/19 12:34:53;;;;;;;;;;;12.10;99.90;;;;;;5064320;28;19966;-72
2022/09/19 12:37:25;;;;;;;;;;;12.10;99.90;;;;;;5064907;28;19983;-72
2022/09/19 12:39:56;;;;;;;;;;;12.20;99.90;;;;;;5064817;28;20119;-71
2022/09/19 12:42:25;;;;;;;;;;;12.50;99.90;;;;;;5064601;28;19921;-71
2022/09/19 12:44:56;;;;;;;;;;;12.90;99.90;;;;;;5064379;28;19928;-72
2022/09/19 12:47:32;;;;;;;;;;;13.20;99.90;;;;;;5064865;28;19920;-72
2022/09/19 12:50:03;;;;;;;;;;;13.60;99.90;;;;;;5064791;28;19921;-72
2022/09/19 12:52:34;;;;;;;;;;;13.90;99.90;;;;;;5064258;28;19968;-71
2022/09/19 12:55:04;;;;;;;;;;;14.00;99.90;;;;;;5044494;28;19929;-72
2022/09/19 12:57:36;;;;;;;;;;;13.80;99.90;;;;;;5044935;28;20156;-72
2022/09/19 13:00:03;;;;;;;;;;;13.60;99.90;;;;;;5063110;28;19930;-72
2022/09/19 13:02:32;;;;;;;;;;;13.40;99.90;;;;;;5064268;28;19974;-73
2022/09/19 13:05:01;;;;;;;;;;;13.30;99.90;;;;;;5063590;28;20140;-72
2022/09/19 13:07:32;;;;;;;;;;;13.20;99.90;;;;;;5063971;28;19963;-72
2022/09/19 13:10:01;;;;;;;;;;;13.10;99.90;;;;;;5064726;28;20010;-72
2022/09/19 13:12:34;;;;;;;;;;;12.90;99.90;;;;;;5063135;28;20120;-73
2022/09/19 13:15:05;;;;;;;;;;;12.80;99.90;;;;;;5062823;28;19939;-71
2022/09/19 13:25:49;;;;;;;;;;;12.30;99.90;;;;;;5058596;28;19959;-71
2022/09/19 13:28:32;;;;;;;;;;;12.10;99.90;;;;;;5063905;28;19921;-71
2022/09/19 13:31:01;;;;;;;;;;;11.90;99.90;;;;;;5049219;28;20208;-71
2022/09/19 13:33:28;;;;;;;;;;;11.90;99.90;;;;;;5064013;28;20162;-71
2022/09/19 13:35:59;;;;;;;;;;;11.80;99.90;;;;;;5062132;28;19929;-71
2022/09/19 13:38:38;;;;;;;;;;;11.80;99.90;;;;;;5060904;28;19941;-71
2022/09/19 13:41:07;;;;;;;;;;;11.80;99.90;;;;;;5061086;28;19999;-71
2022/09/19 13:43:38;;;;;;;;;;;11.70;99.90;;;;;;5062112;28;20043;-71
2022/09/19 13:46:10;;;;;;;;;;;11.70;99.90;;;;;;5059660;28;19991;-71
2022/09/19 13:48:42;;;;;;;;;;;11.60;99.90;;;;;;5062965;28;19928;-71
2022/09/19 13:51:12;;;;;;;;;;;11.70;99.90;;;;;;5062757;28;20145;-71
2022/09/19 13:53:41;;;;;;;;;;;11.90;99.90;;;;;;5062842;28;19983;-71
2022/09/19 13:56:23;;;;;;;;;;;12.20;99.90;;;;;;5062195;28;20239;-71
2022/09/19 13:58:52;;;;;;;;;;;12.60;99.90;;;;;;5061624;28;19920;-71
2022/09/19 14:01:22;;;;;;;;;;;12.80;99.90;;;;;;5059658;28;20105;-71
2022/09/19 14:03:53;;;;;;;;;;;12.80;99.90;;;;;;5063123;28;19980;-71
2022/09/19 14:06:27;;;;;;;;;;;12.70;99.90;;;;;;5059142;28;19921;-71
2022/09/19 14:09:12;;;;;;;;;;;12.70;99.90;;;;;;5062861;28;19921;-71
2022/09/19 14:11:40;;;;;;;;;;;12.60;99.90;;;;;;5062205;28;19927;-71
2022/09/19 14:14:21;;;;;;;;;;;12.60;99.90;;;;;;5062407;28;19928;-71
2022/09/19 14:17:10;;;;;;;;;;;12.60;99.90;;;;;;5059986;28;19927;-71
2022/09/19 14:19:44;;;;;;;;;;;12.50;99.90;;;;;;5063185;28;19920;-74
2022/09/19 14:22:28;;;;;;;;;;;12.40;99.90;;;;;;5063648;28;19921;-75
2022/09/19 14:25:02;;;;;;;;;;;12.20;99.90;;;;;;5043005;28;20223;-73
2022/09/19 14:27:47;;;;;;;;;;;12.10;99.90;;;;;;5043464;28;19967;-72
2022/09/19 14:30:22;;;;;;;;;;;12.10;99.90;;;;;;5019426;28;19921;-71
2022/09/19 14:32:54;;;;;;;;;;;12.00;99.90;;;;;;5053862;28;20259;-72
2022/09/19 14:35:34;;;;;;;;;;;12.10;99.90;;;;;;5058609;28;19924;-72
2022/09/19 14:38:14;;;;;;;;;;;12.10;99.90;;;;;;5058702;28;20239;-72
2022/09/19 14:40:43;;;;;;;;;;;12.20;99.90;;;;;;5062769;28;20390;-73
2022/09/19 14:43:25;;;;;;;;;;;12.20;99.90;;;;;;5069419;28;19921;-71
2022/09/19 14:46:02;;;;;;;;;;;12.30;99.90;;;;;;5063218;28;20226;-69
2022/09/19 14:48:34;;;;;;;;;;;12.40;99.90;;;;;;5067317;28;19987;-70
2022/09/19 14:51:05;;;;;;;;;;;12.70;99.90;;;;;;5069797;28;19932;-71
2022/09/19 14:53:33;;;;;;;;;;;12.80;99.90;;;;;;5061405;28;19929;-71
2022/09/19 14:56:01;;;;;;;;;;;12.70;99.90;;;;;;5061530;28;19936;-70
2022/09/19 14:58:29;;;;;;;;;;;12.70;99.90;;;;;;5071776;28;20200;-71
2022/09/19 15:00:58;;;;;;;;;;;12.70;99.90;;;;;;5070276;28;19921;-74
2022/09/19 15:03:27;;;;;;;;;;;12.70;99.90;;;;;;5072613;28;19925;-72